createdAt,value
2022-12-18T00:02:08.027Z,98773.16
2022-12-18T00:06:10.960Z,98765.19
2022-12-18T00:10:15.507Z,98759.78
2022-12-18T00:14:17.110Z,98757.28
2022-12-18T00:18:20.667Z,98758.13
2022-12-18T00:22:23.613Z,98757.47
2022-12-18T00:26:26.048Z,98761.47
2022-12-18T00:30:27.622Z,98772.13
2022-12-18T00:34:28.988Z,98778.22
2022-12-18T00:38:31.804Z,98786.38
2022-12-18T00:42:33.190Z,98793.31
2022-12-18T00:46:34.595Z,98790.16
2022-12-18T00:50:36.009Z,98798.19
2022-12-18T00:54:38.766Z,98802.53
2022-12-18T00:58:40.149Z,98800.50
2022-12-18T01:02:41.744Z,98799.28
2022-12-18T01:06:43.226Z,98803.81
2022-12-18T01:10:45.957Z,98802.63
2022-12-18T01:14:47.642Z,98801.84
2022-12-18T01:18:51.587Z,98803.31
2022-12-18T01:22:52.965Z,98806.00
2022-12-18T01:26:55.734Z,98819.56
2022-12-18T01:30:57.074Z,98815.97
2022-12-18T01:34:58.575Z,98814.09
2022-12-18T01:39:00.648Z,98811.50
2022-12-18T01:43:03.579Z,98807.38
2022-12-18T01:47:05.017Z,98817.25
2022-12-18T01:51:06.974Z,98827.06
2022-12-18T01:55:10.058Z,98820.22
2022-12-18T01:59:14.081Z,98825.16
2022-12-18T02:03:15.498Z,98834.22
2022-12-18T02:07:21.312Z,98838.34
2022-12-18T02:11:29.175Z,98829.22
2022-12-18T02:15:36.937Z,98835.41
2022-12-18T02:19:47.776Z,98850.69
2022-12-18T02:23:54.069Z,98839.53
2022-12-18T02:27:57.393Z,98836.03
2022-12-18T02:31:59.697Z,98848.34
2022-12-18T02:36:02.094Z,98845.28
2022-12-18T02:40:04.530Z,98841.88
2022-12-18T02:44:10.005Z,98835.41
2022-12-18T02:48:11.403Z,98841.22
2022-12-18T02:52:19.459Z,98833.34
2022-12-18T02:56:22.429Z,98847.28
2022-12-18T03:00:28.069Z,98844.31
2022-12-18T03:04:31.442Z,98838.50
2022-12-18T03:08:36.484Z,98839.38
2022-12-18T03:12:41.309Z,98825.38
2022-12-18T03:16:44.569Z,98814.47
2022-12-18T03:20:46.907Z,98823.69
2022-12-18T03:24:49.632Z,98833.78
2022-12-18T03:28:52.453Z,98828.59
2022-12-18T03:33:00.539Z,98833.47
2022-12-18T03:37:02.136Z,98842.72
2022-12-18T03:41:07.732Z,98836.38
2022-12-18T03:45:11.182Z,98821.53
2022-12-18T03:49:16.110Z,98815.13
2022-12-18T03:53:24.177Z,98822.19
2022-12-18T03:57:29.331Z,98841.81
2022-12-18T04:01:32.712Z,98839.88
2022-12-18T04:05:36.746Z,98836.31
2022-12-18T04:09:39.569Z,98851.91
2022-12-18T04:13:43.383Z,98862.41
2022-12-18T04:17:48.551Z,98855.25
2022-12-18T04:21:51.309Z,98854.72
2022-12-18T04:25:52.714Z,98853.53
2022-12-18T04:29:54.061Z,98861.63
2022-12-18T04:33:55.444Z,98852.63
2022-12-18T04:37:58.200Z,98851.38
2022-12-18T04:41:59.559Z,98870.41
2022-12-18T04:46:04.158Z,98869.59
2022-12-18T04:50:06.107Z,98874.63
2022-12-18T04:54:08.810Z,98887.47
2022-12-18T04:58:10.161Z,98868.50
2022-12-18T05:02:11.758Z,98871.91
2022-12-18T05:06:13.311Z,98881.53
2022-12-18T05:10:16.166Z,98878.06
2022-12-18T05:14:17.587Z,98882.19
2022-12-18T05:18:18.960Z,98880.69
2022-12-18T05:22:20.332Z,98883.88
2022-12-18T05:26:23.156Z,98889.75
2022-12-18T05:30:24.527Z,98884.41
2022-12-18T05:34:25.893Z,98892.41
2022-12-18T05:38:27.976Z,98882.94
2022-12-18T05:42:31.094Z,98878.94
2022-12-18T05:46:32.687Z,98889.69
2022-12-18T05:50:34.804Z,98908.25
2022-12-18T05:54:36.164Z,98913.34
2022-12-18T05:58:38.989Z,98916.72
2022-12-18T06:02:40.510Z,98929.81
2022-12-18T06:06:42.012Z,98930.31
2022-12-18T06:10:43.350Z,98917.13
2022-12-18T06:14:46.052Z,98913.84
2022-12-18T06:18:47.431Z,98920.94
2022-12-18T06:22:48.842Z,98914.84
2022-12-18T06:26:51.024Z,98916.72
2022-12-18T06:30:53.738Z,98928.06
2022-12-18T06:34:55.118Z,98933.56
2022-12-18T06:38:56.986Z,98936.25
2022-12-18T06:42:58.352Z,98948.03
2022-12-18T06:47:01.101Z,98942.13
2022-12-18T06:51:02.590Z,98952.28
2022-12-18T06:55:04.360Z,98948.84
2022-12-18T06:59:05.759Z,98947.47
2022-12-18T07:03:08.579Z,98944.94
2022-12-18T07:07:10.003Z,98956.47
2022-12-18T07:11:11.500Z,98964.25
2022-12-18T07:15:12.905Z,98976.25
2022-12-18T07:19:15.619Z,98986.56
2022-12-18T07:23:16.967Z,98980.50
2022-12-18T07:27:18.381Z,98971.88
2022-12-18T07:31:21.609Z,98967.50
2022-12-18T07:35:25.445Z,98959.22
2022-12-18T07:39:27.113Z,98958.25
2022-12-18T07:43:28.501Z,98956.22
2022-12-18T07:47:30.092Z,98951.38
2022-12-18T07:51:33.628Z,98949.38
2022-12-18T07:56:00.020Z,98965.38
2022-12-18T07:59:56.312Z,98980.59
2022-12-18T08:03:58.056Z,98991.66
2022-12-18T08:08:00.776Z,98997.31
2022-12-18T08:12:02.115Z,98995.31
2022-12-18T08:16:04.713Z,99001.59
2022-12-18T08:20:06.509Z,98997.81
2022-12-18T08:24:10.765Z,99008.03
2022-12-18T08:28:12.279Z,99019.19
2022-12-18T08:32:13.717Z,99012.19
2022-12-18T08:36:15.115Z,99017.56
2022-12-18T08:40:17.910Z,99016.72
2022-12-18T08:44:19.311Z,99023.66
2022-12-18T08:48:22.365Z,99031.03
2022-12-18T08:52:23.836Z,99027.84
2022-12-18T08:56:26.552Z,99024.25
2022-12-18T09:00:28.098Z,99026.84
2022-12-18T09:04:29.458Z,99025.50
2022-12-18T09:08:30.866Z,99029.38
2022-12-18T09:12:33.576Z,99024.06
2022-12-18T09:16:34.973Z,99023.22
2022-12-18T09:20:36.355Z,99031.56
2022-12-18T09:24:37.732Z,99030.41
2022-12-18T09:28:40.736Z,99026.09
2022-12-18T09:32:42.386Z,99024.41
2022-12-18T09:36:43.831Z,99020.97
2022-12-18T09:40:46.139Z,99029.38
2022-12-18T09:44:51.246Z,99023.59
2022-12-18T09:48:53.972Z,99021.66
2022-12-18T09:52:57.681Z,99012.50
2022-12-18T09:56:59.157Z,98993.19
2022-12-18T10:01:01.881Z,99002.44
2022-12-18T10:05:05.371Z,98994.75
2022-12-18T10:09:11.480Z,99007.13
2022-12-18T10:13:19.825Z,99007.00
2022-12-18T10:17:27.433Z,98997.22
2022-12-18T10:21:32.965Z,98998.53
2022-12-18T10:25:39.620Z,98991.56
2022-12-18T10:29:41.625Z,98986.63
2022-12-18T10:33:44.454Z,98985.50
2022-12-18T10:38:01.146Z,98981.03
2022-12-18T10:42:10.588Z,98976.09
2022-12-18T10:46:16.631Z,98960.81
2022-12-18T10:50:26.299Z,98942.47
2022-12-18T10:54:33.900Z,98940.66
2022-12-18T10:58:36.838Z,98949.81
2022-12-18T11:02:39.010Z,98940.53
2022-12-18T11:06:53.586Z,98947.84
2022-12-18T11:10:54.956Z,98965.03
2022-12-18T11:14:56.554Z,98983.72
2022-12-18T11:19:11.496Z,98979.00
2022-12-18T11:23:14.449Z,98991.63
2022-12-18T11:27:18.672Z,98993.25
2022-12-18T11:31:26.953Z,98987.47
2022-12-18T11:35:35.642Z,98971.50
2022-12-18T11:39:40.294Z,98962.25
2022-12-18T11:43:45.240Z,98963.44
2022-12-18T11:47:50.036Z,98964.53
2022-12-18T11:51:55.162Z,98961.91
2022-12-18T11:56:05.771Z,98963.88
2022-12-18T12:00:12.812Z,98966.88
2022-12-18T12:04:38.399Z,98973.59
2022-12-18T12:08:48.746Z,98968.69
2022-12-18T12:13:01.008Z,98963.50
2022-12-18T12:17:05.426Z,98950.91
2022-12-18T12:21:08.996Z,98938.69
2022-12-18T12:25:19.358Z,98924.91
2022-12-18T12:29:29.683Z,98912.56
2022-12-18T12:33:38.389Z,98913.06
2022-12-18T12:37:49.483Z,98912.16
2022-12-18T12:41:50.855Z,98901.69
2022-12-18T12:45:55.203Z,98917.47
2022-12-18T12:49:57.606Z,98917.94
2022-12-18T12:54:01.226Z,98906.06
2022-12-18T12:58:08.034Z,98908.69
2022-12-18T13:02:16.230Z,98910.19
2022-12-18T13:06:20.013Z,98915.22
2022-12-18T13:10:27.327Z,98914.84
2022-12-18T13:14:30.085Z,98905.91
2022-12-18T13:18:33.232Z,98910.09
2022-12-18T13:22:36.130Z,98912.22
2022-12-18T13:26:37.548Z,98911.47
2022-12-18T13:30:42.690Z,98913.81
2022-12-18T13:34:46.100Z,98921.94
2022-12-18T13:38:47.547Z,98920.19
2022-12-18T13:42:50.053Z,98915.59
2022-12-18T13:46:52.594Z,98913.66
2022-12-18T13:50:58.339Z,98907.72
2022-12-18T13:55:00.895Z,98911.56
2022-12-18T13:59:13.202Z,98912.97
2022-12-18T14:03:22.121Z,98910.81
2022-12-18T14:07:26.912Z,98903.06
2022-12-18T14:11:33.125Z,98893.19
2022-12-18T14:15:36.496Z,98903.72
2022-12-18T14:19:41.499Z,98891.50
2022-12-18T14:23:45.032Z,98887.97
2022-12-18T14:27:47.726Z,98904.19
2022-12-18T14:32:03.964Z,98901.22
2022-12-18T14:36:06.313Z,98911.09
2022-12-18T14:40:14.261Z,98901.16
2022-12-18T14:44:15.634Z,98902.22
2022-12-18T14:48:23.260Z,98892.50
2022-12-18T14:52:28.431Z,98886.44
2022-12-18T14:56:32.021Z,98888.38
2022-12-18T15:00:33.433Z,98887.59
2022-12-18T15:04:35.787Z,98885.50
2022-12-18T15:08:37.991Z,98898.03
2022-12-18T15:12:41.832Z,98895.72
2022-12-18T15:16:46.135Z,98906.78
2022-12-18T15:20:49.170Z,98909.03
2022-12-18T15:24:50.675Z,98913.84
2022-12-18T15:28:55.716Z,98911.81
2022-12-18T15:33:11.970Z,98908.56
2022-12-18T15:37:13.351Z,98913.34
2022-12-18T15:41:17.836Z,98906.97
2022-12-18T15:45:24.144Z,98903.28
2022-12-18T15:49:25.594Z,98906.81
2022-12-18T15:53:30.032Z,98909.19
2022-12-18T15:57:31.447Z,98927.75
2022-12-18T16:01:37.090Z,98924.53
2022-12-18T16:05:42.312Z,98923.84
2022-12-18T16:09:43.714Z,98923.38
2022-12-18T16:13:45.064Z,98920.66
2022-12-18T16:17:48.873Z,98920.97
2022-12-18T16:21:51.102Z,98918.41
2022-12-18T16:25:52.532Z,98917.94
2022-12-18T16:29:53.948Z,98917.13
2022-12-18T16:34:10.212Z,98910.69
2022-12-18T16:38:12.922Z,98904.78
2022-12-18T16:42:15.602Z,98901.91
2022-12-18T16:46:17.056Z,98901.72
2022-12-18T16:50:18.580Z,98910.75
2022-12-18T16:54:21.500Z,98908.38
2022-12-18T16:58:23.143Z,98901.16
2022-12-18T17:02:25.960Z,98895.31
2022-12-18T17:06:29.490Z,98897.78
2022-12-18T17:10:32.266Z,98896.31
2022-12-18T17:14:33.648Z,98902.38
2022-12-18T17:18:35.170Z,98896.78
2022-12-18T17:22:36.554Z,98898.81
2022-12-18T17:26:39.408Z,98893.97
2022-12-18T17:30:40.812Z,98904.50
2022-12-18T17:34:42.187Z,98896.19
2022-12-18T17:38:43.657Z,98892.47
2022-12-18T17:42:46.398Z,98889.53
2022-12-18T17:46:47.895Z,98882.31
2022-12-18T17:50:49.340Z,98882.69
2022-12-18T17:54:50.692Z,98893.31
2022-12-18T17:58:53.437Z,98880.19
2022-12-18T18:02:55.067Z,98875.53
2022-12-18T18:06:56.624Z,98888.25
2022-12-18T18:10:58.454Z,98882.53
2022-12-18T18:15:01.198Z,98879.16
2022-12-18T18:19:04.021Z,98885.78
2022-12-18T18:23:05.432Z,98884.00
2022-12-18T18:27:06.910Z,98891.44
2022-12-18T18:31:10.586Z,98885.47
2022-12-18T18:35:24.621Z,98886.47
2022-12-18T18:39:33.605Z,98879.56
2022-12-18T18:43:34.970Z,98877.97
2022-12-18T18:47:37.760Z,98880.97
2022-12-18T18:51:39.147Z,98874.13
2022-12-18T18:55:40.528Z,98882.78
2022-12-18T18:59:42.176Z,98886.09
2022-12-18T19:03:45.438Z,98882.97
2022-12-18T19:07:46.827Z,98877.81
2022-12-18T19:11:48.243Z,98874.38
2022-12-18T19:15:49.651Z,98870.66
2022-12-18T19:19:52.554Z,98867.78
2022-12-18T19:23:53.949Z,98862.38
2022-12-18T19:27:55.332Z,98868.69
2022-12-18T19:31:56.772Z,98862.16
2022-12-18T19:35:59.676Z,98855.50
2022-12-18T19:40:02.272Z,98856.81
2022-12-18T19:44:08.826Z,98850.59
2022-12-18T19:48:10.219Z,98854.16
2022-12-18T19:52:13.030Z,98861.31
2022-12-18T19:56:15.801Z,98863.88
2022-12-18T20:00:18.967Z,98865.75
2022-12-18T20:04:20.568Z,98867.16
2022-12-18T20:08:23.356Z,98867.03
2022-12-18T20:12:24.759Z,98853.72
2022-12-18T20:16:26.202Z,98857.69
2022-12-18T20:20:28.198Z,98855.69
2022-12-18T20:24:31.132Z,98856.38
2022-12-18T20:28:32.563Z,98859.94
2022-12-18T20:32:37.078Z,98860.78
2022-12-18T20:36:38.837Z,98857.47
2022-12-18T20:40:43.717Z,98860.00
2022-12-18T20:44:45.323Z,98860.84
2022-12-18T20:48:46.755Z,98852.59
2022-12-18T20:52:48.161Z,98855.13
2022-12-18T20:56:50.911Z,98845.25
2022-12-18T21:01:01.855Z,98839.34
2022-12-18T21:05:03.425Z,98843.06
2022-12-18T21:09:04.817Z,98840.53
2022-12-18T21:13:08.790Z,98843.41
2022-12-18T21:17:12.775Z,98845.09
2022-12-18T21:21:14.197Z,98845.56
2022-12-18T21:25:15.642Z,98850.44
2022-12-18T21:29:19.777Z,98846.75
2022-12-18T21:33:21.313Z,98844.88
2022-12-18T21:37:22.705Z,98827.34
2022-12-18T21:41:24.326Z,98836.59
2022-12-18T21:45:27.053Z,98825.97
2022-12-18T21:49:28.439Z,98821.13
2022-12-18T21:53:29.821Z,98805.78
2022-12-18T21:57:31.257Z,98794.16
2022-12-18T22:01:37.732Z,98791.63
2022-12-18T22:05:39.317Z,98805.09
2022-12-18T22:09:41.165Z,98811.44
2022-12-18T22:13:42.501Z,98803.53
2022-12-18T22:17:45.232Z,98809.53
2022-12-18T22:21:47.497Z,98788.63
2022-12-18T22:25:48.855Z,98786.13
2022-12-18T22:29:50.226Z,98785.81
2022-12-18T22:33:52.972Z,98776.53
2022-12-18T22:37:54.369Z,98766.59
2022-12-18T22:41:56.141Z,98780.34
2022-12-18T22:45:57.718Z,98776.44
2022-12-18T22:50:00.577Z,98775.59
2022-12-18T22:54:01.951Z,98769.25
2022-12-18T22:58:03.528Z,98753.03
2022-12-18T23:02:04.967Z,98749.28
2022-12-18T23:06:09.120Z,98747.03
2022-12-18T23:10:10.513Z,98731.88
2022-12-18T23:14:12.068Z,98731.91
2022-12-18T23:18:13.483Z,98732.44
2022-12-18T23:22:16.227Z,98724.66
2022-12-18T23:26:18.828Z,98720.25
2022-12-18T23:30:20.216Z,98730.63
2022-12-18T23:34:23.411Z,98732.31
2022-12-18T23:38:26.123Z,98738.00
2022-12-18T23:42:27.476Z,98744.56
2022-12-18T23:46:30.598Z,98743.84
2022-12-18T23:50:34.561Z,98739.22
2022-12-18T23:54:37.275Z,98730.63
2022-12-18T23:58:39.129Z,98761.75
